Time;durP1;ratioP1;P1;durP2;ratioP2;P2;SDS_P1;SDS_P2;PMS_P1;PMS_P2;Temp;Humidity;BMP_temperature;BMP_pressure;BME280_temperature;BME280_humidity;BME280_pressure;Samples;Min_cycle;Max_cycle;Signal;HPM_P1;HPM_P2
2023/08/25 00:01:04;;;;;;;21.05;11.55;;;;;;;-147.65;100.00;57646.63;10415051;28;20052;-78
2023/08/25 00:06:05;;;;;;;15.95;10.38;;;;;;;-147.65;100.00;57646.63;10419798;28;20034;-78
2023/08/25 00:11:05;;;;;;;18.65;12.20;;;;;;;-147.65;100.00;57646.63;10408903;28;20081;-77
2023/08/25 00:16:06;;;;;;;17.75;10.23;;;;;;;-147.65;100.00;57646.63;10434873;28;20045;-77
2023/08/25 00:21:06;;;;;;;21.10;13.30;;;;;;;-147.65;100.00;57646.63;10415049;28;20136;-77
2023/08/25 00:26:08;;;;;;;22.33;11.68;;;;;;;-147.65;100.00;57646.63;10420444;28;20123;-77
2023/08/25 00:31:08;;;;;;;18.07;11.17;;;;;;;-147.65;100.00;57646.63;10430777;28;20120;-77
2023/08/25 00:36:09;;;;;;;27.38;17.45;;;;;;;-147.65;100.00;57646.63;10424293;28;20033;-78
2023/08/25 00:41:09;;;;;;;25.63;14.10;;;;;;;-147.65;100.00;57646.63;10411668;28;20071;-77
2023/08/25 00:46:10;;;;;;;23.48;13.90;;;;;;;-147.65;100.00;57646.63;10422702;28;20047;-78
2023/08/25 00:51:11;;;;;;;19.52;13.38;;;;;;;-147.65;100.00;57646.63;10413129;28;20073;-78
2023/08/25 00:56:13;;;;;;;20.25;13.00;;;;;;;-147.65;100.00;57646.63;10425011;28;20462;-77
2023/08/25 01:01:13;;;;;;;14.50;9.55;;;;;;;-147.65;100.00;57646.63;10469788;28;20052;-77
2023/08/25 01:06:14;;;;;;;19.55;9.77;;;;;;;-147.65;100.00;57646.63;10475192;28;20128;-77
2023/08/25 01:11:27;;;;;;;15.63;10.48;;;;;;;-147.65;100.00;57646.63;10473842;28;20052;-77
2023/08/25 01:16:32;;;;;;;21.30;12.02;;;;;;;-147.65;100.00;57646.63;10463347;28;20058;-77
2023/08/25 01:21:34;;;;;;;19.13;10.02;;;;;;;-147.65;100.00;57646.63;10528239;27;20044;-78
2023/08/25 01:26:35;;;;;;;14.60;9.45;;;;;;;-147.65;100.00;57646.63;10495259;28;20094;-77
2023/08/25 01:31:35;;;;;;;13.60;9.55;;;;;;;-147.65;100.00;57646.63;10515162;28;20430;-77
2023/08/25 01:37:10;;;;;;;20.02;9.98;;;;;;;-147.65;100.00;57646.63;10491570;28;20063;-77
2023/08/25 01:42:10;;;;;;;19.38;12.05;;;;;;;-147.65;100.00;57646.63;10509896;28;20142;-77
2023/08/25 01:47:11;;;;;;;16.77;11.35;;;;;;;-147.65;100.00;57646.63;10487643;28;20101;-77
2023/08/25 01:52:12;;;;;;;19.60;11.77;;;;;;;-147.65;100.00;57646.63;10496603;28;20050;-77
2023/08/25 01:57:13;;;;;;;30.40;16.02;;;;;;;-147.65;100.00;57646.63;10463189;28;20106;-77
2023/08/25 02:02:13;;;;;;;20.38;12.95;;;;;;;-147.65;100.00;57646.63;10445798;28;20582;-77
2023/08/25 02:07:14;;;;;;;22.15;13.32;;;;;;;-147.65;100.00;57646.63;10457404;28;20040;-77
2023/08/25 02:12:14;;;;;;;17.73;12.05;;;;;;;-147.65;100.00;57646.63;10446352;28;20439;-77
2023/08/25 02:17:15;;;;;;;20.90;11.93;;;;;;;-147.65;100.00;57646.63;10469055;28;20033;-77
2023/08/25 02:22:15;;;;;;;16.25;9.60;;;;;;;-147.65;100.00;57646.63;10449221;28;20082;-78
2023/08/25 02:27:16;;;;;;;12.82;7.60;;;;;;;-147.65;100.00;57646.63;10461229;28;20477;-78
2023/08/25 02:32:17;;;;;;;18.42;10.18;;;;;;;-147.65;100.00;57646.63;10483709;28;20045;-78
2023/08/25 02:37:17;;;;;;;17.85;10.95;;;;;;;-147.65;100.00;57646.63;10480300;28;20032;-78
2023/08/25 02:42:18;;;;;;;22.23;12.80;;;;;;;-147.65;100.00;57646.63;10451725;28;20128;-79
2023/08/25 02:47:18;;;;;;;20.75;11.85;;;;;;;-147.65;100.00;57646.63;10464083;28;20812;-79
2023/08/25 02:52:19;;;;;;;18.85;11.20;;;;;;;-147.65;100.00;57646.63;10481007;28;20043;-79
2023/08/25 02:57:19;;;;;;;18.27;12.38;;;;;;;-147.65;100.00;57646.63;10471670;28;20041;-79
2023/08/25 03:02:20;;;;;;;25.92;15.10;;;;;;;-147.65;100.00;57646.63;10465814;28;20439;-79
2023/08/25 03:07:20;;;;;;;21.30;12.75;;;;;;;-147.65;100.00;57646.63;10469650;28;20101;-79
2023/08/25 03:12:21;;;;;;;23.83;13.75;;;;;;;-147.65;100.00;57646.63;10445752;28;20049;-80
2023/08/25 03:17:22;;;;;;;27.05;18.95;;;;;;;-147.65;100.00;57646.63;10441137;28;20187;-79
2023/08/25 03:22:22;;;;;;;21.13;15.05;;;;;;;-147.65;100.00;57646.63;10420378;28;20045;-79
2023/08/25 03:27:23;;;;;;;20.58;14.57;;;;;;;-147.65;100.00;57646.63;10441767;28;20040;-80
2023/08/25 03:32:23;;;;;;;32.00;15.30;;;;;;;-147.65;100.00;57646.63;10440218;28;20144;-79
2023/08/25 03:37:24;;;;;;;30.65;18.48;;;;;;;-147.65;100.00;57646.63;10449749;28;20044;-79
2023/08/25 03:42:25;;;;;;;29.13;16.58;;;;;;;-147.65;100.00;57646.63;10438158;28;20099;-79
2023/08/25 03:47:25;;;;;;;25.95;15.18;;;;;;;-147.65;100.00;57646.63;10462868;28;20079;-78
2023/08/25 03:52:26;;;;;;;53.17;20.00;;;;;;;-147.65;100.00;57646.63;10443094;28;20512;-79
2023/08/25 03:57:26;;;;;;;23.35;15.35;;;;;;;-147.65;100.00;57646.63;10444042;28;20045;-79
2023/08/25 04:02:27;;;;;;;35.97;16.30;;;;;;;-147.65;100.00;57646.63;10446506;28;20049;-79
2023/08/25 04:07:27;;;;;;;44.75;15.40;;;;;;;-147.65;100.00;57646.63;10405462;28;20128;-79
2023/08/25 04:12:28;;;;;;;55.47;17.70;;;;;;;-147.65;100.00;57646.63;10447581;28;20128;-79
2023/08/25 04:17:30;;;;;;;21.05;12.10;;;;;;;-147.65;100.00;57646.63;10437662;28;20395;-79
2023/08/25 04:22:30;;;;;;;;;;;;;;;-147.65;100.00;57646.63;10448936;28;20038;-79
2023/08/25 04:27:31;;;;;;;39.03;21.07;;;;;;;-147.65;100.00;57646.63;10450307;28;19924;-79
2023/08/25 04:32:31;;;;;;;43.35;22.15;;;;;;;-147.65;100.00;57646.63;10448692;28;20300;-79
2023/08/25 04:37:32;;;;;;;43.00;24.25;;;;;;;-147.65;100.00;57646.63;10446610;28;20045;-78
2023/08/25 04:42:32;;;;;;;40.90;21.60;;;;;;;-147.65;100.00;57646.63;10452521;28;20116;-79
2023/08/25 04:47:33;;;;;;;35.35;20.20;;;;;;;-147.65;100.00;57646.63;10445880;28;20046;-79
2023/08/25 04:52:36;;;;;;;42.42;22.13;;;;;;;-147.65;100.00;57646.63;10439514;28;20604;-79
2023/08/25 04:57:37;;;;;;;35.78;20.52;;;;;;;-147.65;100.00;57646.63;10443252;28;20396;-79
2023/08/25 05:02:37;;;;;;;16.48;10.35;;;;;;;-147.65;100.00;57646.63;10447980;28;20041;-78
2023/08/25 05:07:38;;;;;;;22.33;13.95;;;;;;;-147.65;100.00;57646.63;10435425;28;20044;-78
2023/08/25 05:12:40;;;;;;;29.90;18.75;;;;;;;-147.65;100.00;57646.63;10457125;28;20041;-78
2023/08/25 05:17:40;;;;;;;37.63;21.33;;;;;;;-147.65;100.00;57646.63;10456274;28;20067;-77
2023/08/25 05:22:41;;;;;;;37.83;20.27;;;;;;;-147.65;100.00;57646.63;10459389;28;20036;-76
2023/08/25 05:27:41;;;;;;;34.53;19.65;;;;;;;-147.65;100.00;57646.63;10403076;28;20044;-76
2023/08/25 05:32:42;;;;;;;43.45;24.63;;;;;;;-147.65;100.00;57646.63;10445853;28;20040;-76
2023/08/25 05:37:43;;;;;;;29.45;17.20;;;;;;;-147.65;100.00;57646.63;10434665;28;20037;-76
2023/08/25 05:42:43;;;;;;;36.17;21.85;;;;;;;-147.65;100.00;57646.63;10415547;28;20029;-77
2023/08/25 05:47:44;;;;;;;26.08;16.15;;;;;;;-147.65;100.00;57646.63;10430529;28;20402;-76
2023/08/25 05:52:47;;;;;;;35.47;21.67;;;;;;;-147.65;100.00;57646.63;10434362;28;20049;-76
2023/08/25 05:57:47;;;;;;;38.80;20.55;;;;;;;-147.65;100.00;57646.63;10427734;28;20045;-76
2023/08/25 06:02:48;;;;;;;31.15;18.80;;;;;;;-147.65;100.00;57646.63;10431668;28;20033;-76
2023/08/25 06:07:49;;;;;;;29.13;19.13;;;;;;;-147.65;100.00;57646.63;10432350;28;20052;-76
2023/08/25 06:12:49;;;;;;;26.55;14.25;;;;;;;-147.65;100.00;57646.63;10428764;28;20537;-76
2023/08/25 06:17:50;;;;;;;13.87;10.63;;;;;;;-147.65;100.00;57646.63;10475369;28;20040;-76
2023/08/25 06:22:50;;;;;;;14.73;9.80;;;;;;;-147.65;100.00;57646.63;10469422;28;20095;-76
2023/08/25 06:27:51;;;;;;;14.80;11.03;;;;;;;-147.65;100.00;57646.63;10512670;28;20036;-76
2023/08/25 06:32:52;;;;;;;12.52;8.52;;;;;;;-147.65;100.00;57646.63;10503110;28;20048;-77
2023/08/25 06:37:54;;;;;;;10.27;8.40;;;;;;;-147.65;100.00;57646.63;10496236;28;20036;-74
2023/08/25 06:42:54;;;;;;;;;;;;;;;-147.65;100.00;57646.63;10488337;28;20048;-75
2023/08/25 06:47:55;;;;;;;16.53;10.33;;;;;;;-147.65;100.00;57646.63;10522121;28;19920;-77
2023/08/25 06:52:56;;;;;;;17.48;11.35;;;;;;;-147.65;100.00;57646.63;10481777;28;20813;-78
2023/08/25 06:57:56;;;;;;;15.98;9.20;;;;;;;-147.65;100.00;57646.63;10433715;28;20050;-76
2023/08/25 07:02:57;;;;;;;14.38;9.05;;;;;;;-147.65;100.00;57646.63;10436557;28;20037;-76
2023/08/25 07:07:58;;;;;;;30.80;15.88;;;;;;;-147.65;100.00;57646.63;10412888;28;20064;-77
2023/08/25 07:12:59;;;;;;;23.57;16.27;;;;;;;-147.65;100.00;57646.63;10429787;28;20064;-77
2023/08/25 07:18:00;;;;;;;17.90;13.32;;;;;;;-147.65;100.00;57646.63;10438296;28;20037;-77
2023/08/25 07:23:00;;;;;;;23.47;15.27;;;;;;;-147.65;100.00;57646.63;10439281;28;20049;-77
2023/08/25 07:28:01;;;;;;;22.80;15.68;;;;;;;-147.65;100.00;57646.63;10426647;28;20045;-76
2023/08/25 07:33:02;;;;;;;29.65;16.42;;;;;;;-147.65;100.00;57646.63;10428091;28;20069;-76
2023/08/25 07:38:03;;;;;;;34.15;15.98;;;;;;;-147.65;100.00;57646.63;10414929;28;20075;-77
2023/08/25 07:43:03;;;;;;;24.67;16.40;;;;;;;-147.65;100.00;57646.63;10416565;28;20076;-77
2023/08/25 07:48:04;;;;;;;28.73;16.35;;;;;;;-147.65;100.00;57646.63;10415921;28;20404;-77
2023/08/25 07:53:05;;;;;;;22.42;16.40;;;;;;;-147.65;100.00;57646.63;10415915;28;20041;-77
2023/08/25 07:58:07;;;;;;;26.03;17.63;;;;;;;-147.65;100.00;57646.63;10418767;28;20037;-77
2023/08/25 08:03:10;;;;;;;31.45;18.70;;;;;;;-147.65;100.00;57646.63;10413786;28;20044;-77
2023/08/25 08:08:11;;;;;;;23.65;17.00;;;;;;;-147.65;100.00;57646.63;10415175;28;20044;-77
2023/08/25 08:13:12;;;;;;;43.58;20.02;;;;;;;-147.65;100.00;57646.63;10407621;28;20673;-78
2023/08/25 08:18:12;;;;;;;21.20;16.55;;;;;;;-147.65;100.00;57646.63;10419912;28;20037;-77
2023/08/25 08:23:13;;;;;;;25.42;15.55;;;;;;;-147.65;100.00;57646.63;10432873;28;20170;-79
2023/08/25 08:28:14;;;;;;;19.70;14.67;;;;;;;-147.65;100.00;57646.63;10428768;28;20476;-78
2023/08/25 08:33:15;;;;;;;19.33;12.40;;;;;;;-147.65;100.00;57646.63;10475057;28;20243;-77
2023/08/25 08:38:15;;;;;;;21.63;13.85;;;;;;;-147.65;100.00;57646.63;10463303;28;20102;-78
2023/08/25 08:43:16;;;;;;;15.77;10.93;;;;;;;-147.65;100.00;57646.63;10465234;28;20055;-76
2023/08/25 08:48:16;;;;;;;14.90;8.55;;;;;;;-147.65;100.00;57646.63;10430456;28;20055;-77
2023/08/25 08:53:18;;;;;;;15.98;9.85;;;;;;;-147.65;100.00;57646.63;10477548;28;20139;-79
2023/08/25 08:58:20;;;;;;;21.77;10.57;;;;;;;-147.65;100.00;57646.63;10466321;28;20108;-79
2023/08/25 09:03:20;;;;;;;19.30;8.13;;;;;;;-147.65;100.00;57646.63;10406263;28;20037;-79
2023/08/25 09:08:21;;;;;;;16.30;9.10;;;;;;;-147.65;100.00;57646.63;10428579;28;20037;-79
2023/08/25 09:13:21;;;;;;;13.18;9.05;;;;;;;-147.65;100.00;57646.63;10407707;28;20048;-76
2023/08/25 09:18:22;;;;;;;13.52;8.23;;;;;;;-147.65;100.00;57646.63;10411621;28;20508;-79
2023/08/25 09:23:23;;;;;;;20.85;11.80;;;;;;;-147.65;100.00;57646.63;10392397;28;20045;-79
2023/08/25 09:28:24;;;;;;;18.83;12.05;;;;;;;-147.65;100.00;57646.63;10416087;28;20045;-77
2023/08/25 09:33:24;;;;;;;11.13;7.82;;;;;;;-147.65;100.00;57646.63;10415865;28;20508;-77
2023/08/25 09:38:25;;;;;;;14.45;8.68;;;;;;;-147.65;100.00;57646.63;10412654;28;20045;-77
2023/08/25 09:43:33;;;;;;;15.88;8.30;;;;;;;-147.65;100.00;57646.63;10453916;28;20069;-78
2023/08/25 09:48:33;;;;;;;10.57;6.18;;;;;;;-147.65;100.00;57646.63;10427009;28;20437;-77
2023/08/25 09:53:34;;;;;;;12.25;6.30;;;;;;;-147.65;100.00;57646.63;10430239;28;20033;-77
2023/08/25 09:58:34;;;;;;;11.77;6.75;;;;;;;-147.65;100.00;57646.63;10430293;28;20629;-77
2023/08/25 10:03:35;;;;;;;9.50;6.40;;;;;;;-147.65;100.00;57646.63;10412558;28;20147;-76
2023/08/25 10:08:35;;;;;;;9.63;5.60;;;;;;;-147.65;100.00;57646.63;10395845;28;20127;-77
2023/08/25 10:13:36;;;;;;;8.77;4.85;;;;;;;-147.65;100.00;57646.63;10416924;28;20059;-77
2023/08/25 10:18:38;;;;;;;8.55;4.50;;;;;;;-147.65;100.00;57646.63;10423698;28;20124;-78
2023/08/25 10:23:38;;;;;;;;;;;;;;;-147.65;100.00;57646.63;10435796;28;20485;-77
2023/08/25 10:28:39;;;;;;;8.93;4.85;;;;;;;-147.65;100.00;57646.63;10478012;28;19935;-79
2023/08/25 10:33:47;;;;;;;12.80;5.35;;;;;;;-147.65;100.00;57646.63;10445796;28;20067;-78
2023/08/25 10:38:59;;;;;;;18.75;10.68;;;;;;;-147.65;100.00;57646.63;10476966;28;20032;-78
2023/08/25 10:44:00;;;;;;;12.30;7.68;;;;;;;-147.65;100.00;57646.63;10465856;28;20155;-78
2023/08/25 10:49:02;;;;;;;9.25;6.85;;;;;;;-147.65;100.00;57646.63;10427987;28;20038;-80
2023/08/25 10:54:03;;;;;;;13.85;7.05;;;;;;;-147.65;100.00;57646.63;10415103;28;20057;-79
2023/08/25 10:59:11;;;;;;;12.88;7.55;;;;;;;-147.65;100.00;57646.63;10433636;28;20033;-78
2023/08/25 11:04:29;;;;;;;10.40;5.30;;;;;;;-147.65;100.00;57646.63;10424019;28;20477;-79
2023/08/25 11:09:35;;;;;;;7.95;5.32;;;;;;;-147.65;100.00;57646.63;10437819;28;20407;-79
2023/08/25 11:14:37;;;;;;;12.80;5.57;;;;;;;-147.65;100.00;57646.63;10439958;28;20029;-80
2023/08/25 11:19:39;;;;;;;7.00;3.92;;;;;;;-147.65;100.00;57646.63;10474694;28;20036;-81
2023/08/25 11:24:39;;;;;;;11.93;5.18;;;;;;;-147.65;100.00;57646.63;10457259;28;20492;-79
2023/08/25 11:29:43;;;;;;;9.88;6.78;;;;;;;-147.65;100.00;57646.63;10448927;28;20040;-80
2023/08/25 11:34:49;;;;;;;13.25;5.03;;;;;;;-147.65;100.00;57646.63;10482608;28;20119;-80
2023/08/25 11:39:50;;;;;;;7.60;5.13;;;;;;;-147.65;100.00;57646.63;10495389;28;20511;-80
2023/08/25 11:44:52;;;;;;;11.75;5.63;;;;;;;-147.65;100.00;57646.63;10507359;28;20126;-79
2023/08/25 11:49:54;;;;;;;11.25;3.75;;;;;;;-147.65;100.00;57646.63;10524054;28;20040;-79
2023/08/25 11:54:54;;;;;;;5.00;2.58;;;;;;;-147.65;100.00;57646.63;10470956;28;20048;-79
2023/08/25 11:59:55;;;;;;;4.72;2.70;;;;;;;-147.65;100.00;57646.63;10453143;28;20469;-80
2023/08/25 12:04:56;;;;;;;8.43;3.72;;;;;;;-147.65;100.00;57646.63;10460405;28;20072;-79
2023/08/25 12:09:58;;;;;;;3.57;1.70;;;;;;;-147.65;100.00;57646.63;10454551;28;20132;-79
2023/08/25 12:14:59;;;;;;;3.33;1.50;;;;;;;-147.65;100.00;57646.63;10465682;28;20045;-79
2023/08/25 12:19:59;;;;;;;3.10;1.93;;;;;;;-147.65;100.00;57646.63;10458010;28;20090;-79
2023/08/25 12:25:00;;;;;;;2.93;2.37;;;;;;;-147.65;100.00;57646.63;10462175;28;20037;-79
2023/08/25 12:30:00;;;;;;;3.83;1.77;;;;;;;-147.65;100.00;57646.63;10458238;28;20136;-78
2023/08/25 12:35:01;;;;;;;4.30;1.23;;;;;;;-147.65;100.00;57646.63;10463291;28;20039;-79
2023/08/25 12:40:01;;;;;;;5.97;1.63;;;;;;;-147.65;100.00;57646.63;10438033;28;20037;-80
2023/08/25 12:45:02;;;;;;;9.50;2.30;;;;;;;-147.65;100.00;57646.63;10426727;28;20045;-80
2023/08/25 12:50:03;;;;;;;2.53;1.60;;;;;;;-147.65;100.00;57646.63;10412447;28;20463;-80
2023/08/25 12:55:04;;;;;;;4.93;3.20;;;;;;;-147.65;100.00;57646.63;10452815;28;20076;-80
2023/08/25 13:00:05;;;;;;;5.25;3.25;;;;;;;-147.65;100.00;57646.63;10413009;28;20043;-79
2023/08/25 13:05:09;;;;;;;5.38;2.60;;;;;;;-147.65;100.00;57646.63;10447625;28;20128;-81
2023/08/25 13:10:10;;;;;;;2.90;1.40;;;;;;;-147.65;100.00;57646.63;10396373;28;20489;-81
2023/08/25 13:15:11;;;;;;;3.47;1.93;;;;;;;-147.65;100.00;57646.63;10452441;28;20128;-81
2023/08/25 13:20:12;;;;;;;7.70;3.10;;;;;;;-147.65;100.00;57646.63;10413188;28;20489;-81
2023/08/25 13:25:13;;;;;;;6.53;2.53;;;;;;;-147.65;100.00;57646.63;10452779;28;20030;-80
2023/08/25 13:30:13;;;;;;;7.50;3.63;;;;;;;-147.65;100.00;57646.63;10413232;28;20046;-80
2023/08/25 13:35:14;;;;;;;4.70;2.83;;;;;;;-147.65;100.00;57646.63;10411667;28;20041;-80
2023/08/25 13:40:14;;;;;;;4.73;3.10;;;;;;;-147.65;100.00;57646.63;10418823;28;20046;-80
2023/08/25 13:45:16;;;;;;;8.97;3.30;;;;;;;-147.65;100.00;57646.63;10426572;28;20069;-80
2023/08/25 13:50:16;;;;;;;8.75;3.85;;;;;;;-147.65;100.00;57646.63;10422760;28;20120;-80
2023/08/25 13:55:17;;;;;;;6.43;3.50;;;;;;;-147.65;100.00;57646.63;10426138;28;20068;-81
2023/08/25 14:00:18;;;;;;;4.63;3.43;;;;;;;-147.65;100.00;57646.63;10445204;28;20047;-81
2023/08/25 14:05:20;;;;;;;6.90;3.90;;;;;;;-147.65;100.00;57646.63;10496775;28;20039;-82
2023/08/25 14:10:21;;;;;;;7.85;4.68;;;;;;;-147.65;100.00;57646.63;10443854;28;20047;-81
2023/08/25 14:15:22;;;;;;;5.47;3.97;;;;;;;-147.65;100.00;57646.63;10445743;28;20382;-82
2023/08/25 14:20:22;;;;;;;7.33;3.43;;;;;;;-147.65;100.00;57646.63;10465754;28;20071;-82
2023/08/25 14:25:23;;;;;;;4.33;3.73;;;;;;;-147.65;100.00;57646.63;10463237;28;20045;-82
2023/08/25 14:30:24;;;;;;;4.93;2.70;;;;;;;-147.65;100.00;57646.63;10460345;28;20044;-81
2023/08/25 14:35:24;;;;;;;8.23;2.90;;;;;;;-147.65;100.00;57646.63;10486035;28;20040;-81
2023/08/25 14:40:25;;;;;;;3.43;2.10;;;;;;;-147.65;100.00;57646.63;10487294;28;20101;-82
2023/08/25 14:45:25;;;;;;;3.53;2.40;;;;;;;-147.65;100.00;57646.63;10491561;28;20472;-81
2023/08/25 14:50:26;;;;;;;9.27;5.53;;;;;;;-147.65;100.00;57646.63;10457951;28;20090;-81
2023/08/25 14:55:26;;;;;;;5.97;3.07;;;;;;;-147.65;100.00;57646.63;10454431;28;20049;-82
2023/08/25 15:00:27;;;;;;;8.17;4.60;;;;;;;-147.65;100.00;57646.63;10438289;28;20044;-82
2023/08/25 15:05:27;;;;;;;9.43;4.43;;;;;;;-147.65;100.00;57646.63;10441859;28;20045;-82
2023/08/25 15:10:28;;;;;;;7.13;3.50;;;;;;;-147.65;100.00;57646.63;10425848;28;20037;-84
2023/08/25 15:15:28;;;;;;;6.77;2.93;;;;;;;-147.65;100.00;57646.63;10435322;28;20560;-83
2023/08/25 15:20:29;;;;;;;5.97;2.47;;;;;;;-147.65;100.00;57646.63;10427891;28;20037;-83
2023/08/25 15:25:30;;;;;;;3.93;3.23;;;;;;;-147.65;100.00;57646.63;10499177;28;20029;-83
2023/08/25 15:30:31;;;;;;;6.23;3.40;;;;;;;-147.65;100.00;57646.63;10482230;28;20327;-83
2023/08/25 15:35:31;;;;;;;5.37;3.40;;;;;;;-147.65;100.00;57646.63;10464181;28;20052;-82
2023/08/25 15:40:34;;;;;;;9.30;6.67;;;;;;;-147.65;100.00;57646.63;10482441;28;20510;-82
2023/08/25 15:45:35;;;;;;;9.50;6.93;;;;;;;-147.65;100.00;57646.63;10489287;28;20051;-83
2023/08/25 15:50:35;;;;;;;13.00;7.77;;;;;;;-147.65;100.00;57646.63;10504743;28;20080;-82
2023/08/25 15:55:36;;;;;;;11.53;9.33;;;;;;;-147.65;100.00;57646.63;10489805;28;20119;-82
2023/08/25 16:00:37;;;;;;;13.43;10.67;;;;;;;-147.65;100.00;57646.63;10471964;28;20047;-83
2023/08/25 16:05:38;;;;;;;17.00;11.50;;;;;;;-147.65;100.00;57646.63;10454514;28;20049;-81
2023/08/25 16:10:38;;;;;;;15.47;11.00;;;;;;;-147.65;100.00;57646.63;10423497;28;20037;-82
2023/08/25 16:15:41;;;;;;;15.70;11.63;;;;;;;-147.65;100.00;57646.63;10416554;28;20495;-82
2023/08/25 16:20:42;;;;;;;17.27;13.00;;;;;;;-147.65;100.00;57646.63;10426069;28;20555;-83
2023/08/25 16:25:43;;;;;;;13.15;10.05;;;;;;;-147.65;100.00;57646.63;10435224;28;20067;-84
2023/08/25 16:30:43;;;;;;;15.50;9.80;;;;;;;-147.65;100.00;57646.63;10438129;28;20098;-83
2023/08/25 16:35:44;;;;;;;20.03;9.20;;;;;;;-147.65;100.00;57646.63;10436322;28;20029;-84
2023/08/25 16:40:44;;;;;;;21.57;9.17;;;;;;;-147.65;100.00;57646.63;10439028;28;20044;-82
2023/08/25 16:45:45;;;;;;;11.23;8.47;;;;;;;-147.65;100.00;57646.63;10438621;28;20029;-82
2023/08/25 16:50:46;;;;;;;16.43;10.70;;;;;;;-147.65;100.00;57646.63;10441022;28;20458;-81
2023/08/25 16:55:46;;;;;;;16.80;11.23;;;;;;;-147.65;100.00;57646.63;10438446;28;20143;-81
2023/08/25 17:00:47;;;;;;;13.13;9.13;;;;;;;-147.65;100.00;57646.63;10440362;28;20033;-82
2023/08/25 17:05:48;;;;;;;13.85;9.00;;;;;;;-147.65;100.00;57646.63;10423931;28;20048;-81
2023/08/25 17:10:49;;;;;;;18.50;11.40;;;;;;;-147.65;100.00;57646.63;10414918;28;20044;-81
2023/08/25 17:15:50;;;;;;;19.70;13.27;;;;;;;-147.65;100.00;57646.63;10416106;28;20041;-83
2023/08/25 17:20:50;;;;;;;16.70;10.73;;;;;;;-147.65;100.00;57646.63;10428730;28;20459;-82
2023/08/25 17:25:51;;;;;;;19.97;13.93;;;;;;;-147.65;100.00;57646.63;10428799;28;20453;-81
2023/08/25 17:30:51;;;;;;;17.47;11.40;;;;;;;-147.65;100.00;57646.63;10416603;28;20048;-80
2023/08/25 17:35:52;;;;;;;24.00;15.33;;;;;;;-147.65;100.00;57646.63;10415433;28;20041;-81
2023/08/25 17:40:52;;;;;;;16.60;11.77;;;;;;;-147.65;100.00;57646.63;10419035;28;20541;-82
2023/08/25 17:45:56;;;;;;;25.97;18.23;;;;;;;-147.65;100.00;57646.63;10417738;28;20042;-81
2023/08/25 17:50:57;;;;;;;28.25;15.65;;;;;;;-147.65;100.00;57646.63;10427540;28;20086;-81
2023/08/25 17:55:57;;;;;;;29.88;18.40;;;;;;;-147.65;100.00;57646.63;10450458;28;20558;-81
2023/08/25 18:00:58;;;;;;;34.50;21.60;;;;;;;-147.65;100.00;57646.63;10463490;28;20040;-80
2023/08/25 18:06:04;;;;;;;32.90;16.85;;;;;;;-147.65;100.00;57646.63;10466380;28;20053;-82
2023/08/25 18:11:05;;;;;;;34.20;24.80;;;;;;;-147.65;100.00;57646.63;10443843;28;20377;-81
2023/08/25 18:16:06;;;;;;;36.25;21.48;;;;;;;-147.65;100.00;57646.63;10449877;28;20041;-80
2023/08/25 18:21:07;;;;;;;40.08;25.63;;;;;;;-147.65;100.00;57646.63;10447225;28;20033;-81
2023/08/25 18:26:07;;;;;;;35.80;20.42;;;;;;;-147.65;100.00;57646.63;10480002;28;20467;-81
2023/08/25 18:31:08;;;;;;;34.53;20.75;;;;;;;-147.65;100.00;57646.63;10469790;28;20037;-82
2023/08/25 18:36:12;;;;;;;31.85;21.52;;;;;;;-147.65;100.00;57646.63;10457656;28;20037;-81
2023/08/25 18:41:13;;;;;;;33.38;23.77;;;;;;;-147.65;100.00;57646.63;10461476;28;20037;-83
2023/08/25 18:46:14;;;;;;;38.30;24.95;;;;;;;-147.65;100.00;57646.63;10479284;28;20112;-83
2023/08/25 18:51:15;;;;;;;39.53;27.42;;;;;;;-147.65;100.00;57646.63;10474626;28;20127;-83
2023/08/25 18:56:16;;;;;;;46.13;29.87;;;;;;;-147.65;100.00;57646.63;10475756;28;20033;-82
2023/08/25 19:01:16;;;;;;;46.10;29.70;;;;;;;-147.65;100.00;57646.63;10469570;28;20127;-85
2023/08/25 19:06:17;;;;;;;56.22;34.90;;;;;;;-147.65;100.00;57646.63;10475752;28;20107;-82
2023/08/25 19:11:18;;;;;;;59.90;34.22;;;;;;;-147.65;100.00;57646.63;10482587;28;20044;-80
2023/08/25 19:16:18;;;;;;;62.80;36.10;;;;;;;-147.65;100.00;57646.63;10441459;28;20065;-81
2023/08/25 19:21:19;;;;;;;70.32;44.03;;;;;;;-147.65;100.00;57646.63;10414419;28;20041;-79
2023/08/25 19:26:20;;;;;;;64.72;41.92;;;;;;;-147.65;100.00;57646.63;10428919;28;20416;-80
2023/08/25 19:31:20;;;;;;;66.80;40.65;;;;;;;-147.65;100.00;57646.63;10428959;28;20045;-79
2023/08/25 19:36:21;;;;;;;64.03;41.95;;;;;;;-147.65;100.00;57646.63;10418068;28;20040;-79
2023/08/25 19:41:22;;;;;;;71.07;40.80;;;;;;;-147.65;100.00;57646.63;10427597;28;20473;-79
2023/08/25 19:46:23;;;;;;;61.63;39.45;;;;;;;-147.65;100.00;57646.63;10427907;28;20045;-79
2023/08/25 19:51:24;;;;;;;65.20;43.60;;;;;;;-147.65;100.00;57646.63;10409908;28;20125;-81
2023/08/25 19:56:28;;;;;;;80.07;44.90;;;;;;;-147.65;100.00;57646.63;10462181;28;20151;-79
2023/08/25 20:01:28;;;;;;;74.95;46.47;;;;;;;-147.65;100.00;57646.63;10448739;28;20041;-79
2023/08/25 20:06:29;;;;;;;66.38;44.00;;;;;;;-147.65;100.00;57646.63;10460650;28;20032;-79
2023/08/25 20:11:30;;;;;;;63.70;44.42;;;;;;;-147.65;100.00;57646.63;10439760;28;20050;-79
2023/08/25 20:16:31;;;;;;;61.33;43.42;;;;;;;-147.65;100.00;57646.63;10414619;28;20041;-80
2023/08/25 20:21:32;;;;;;;59.55;40.17;;;;;;;-147.65;100.00;57646.63;10443903;28;20048;-80
2023/08/25 20:26:33;;;;;;;59.72;40.53;;;;;;;-147.65;100.00;57646.63;10438525;28;20055;-80
2023/08/25 20:31:33;;;;;;;52.03;34.60;;;;;;;-147.65;100.00;57646.63;10432374;28;20063;-80
2023/08/25 20:36:34;;;;;;;52.22;33.50;;;;;;;-147.65;100.00;57646.63;10434257;28;20051;-79
2023/08/25 20:41:34;;;;;;;45.03;29.88;;;;;;;-147.65;100.00;57646.63;10467095;28;20106;-80
2023/08/25 20:46:35;;;;;;;59.95;36.05;;;;;;;-147.65;100.00;57646.63;10442635;28;20041;-80
2023/08/25 20:51:35;;;;;;;54.72;35.80;;;;;;;-147.65;100.00;57646.63;10429217;28;20573;-80
2023/08/25 20:56:36;;;;;;;64.75;39.35;;;;;;;-147.65;100.00;57646.63;10418101;28;20055;-80
2023/08/25 21:01:36;;;;;;;73.07;47.67;;;;;;;-147.65;100.00;57646.63;10435341;28;20063;-80
2023/08/25 21:06:38;;;;;;;54.00;38.63;;;;;;;-147.65;100.00;57646.63;10475148;28;20036;-80
2023/08/25 21:11:38;;;;;;;51.43;34.53;;;;;;;-147.65;100.00;57646.63;10458802;28;20097;-79
2023/08/25 21:16:39;;;;;;;45.38;32.67;;;;;;;-147.65;100.00;57646.63;10471679;28;20068;-79
2023/08/25 21:21:41;;;;;;;48.50;27.70;;;;;;;-147.65;100.00;57646.63;10482256;28;20032;-80
2023/08/25 21:26:41;;;;;;;40.70;28.33;;;;;;;-147.65;100.00;57646.63;10502604;28;20068;-80
2023/08/25 21:31:42;;;;;;;36.47;27.67;;;;;;;-147.65;100.00;57646.63;10480305;28;20123;-80
2023/08/25 21:36:43;;;;;;;40.38;25.80;;;;;;;-147.65;100.00;57646.63;10498572;28;20376;-80
2023/08/25 21:41:44;;;;;;;38.30;23.15;;;;;;;-147.65;100.00;57646.63;10478144;28;20072;-80
2023/08/25 21:46:45;;;;;;;34.80;26.52;;;;;;;-147.65;100.00;57646.63;10514611;28;20101;-79
2023/08/25 21:51:45;;;;;;;38.05;27.38;;;;;;;-147.65;100.00;57646.63;10489503;28;20146;-79
2023/08/25 21:56:46;;;;;;;33.85;24.55;;;;;;;-147.65;100.00;57646.63;10498431;28;20036;-80
2023/08/25 22:01:46;;;;;;;32.10;26.13;;;;;;;-147.65;100.00;57646.63;10466731;28;20044;-79
2023/08/25 22:06:47;;;;;;;37.15;26.60;;;;;;;-147.65;100.00;57646.63;10479363;28;20101;-79
2023/08/25 22:11:50;;;;;;;38.60;26.35;;;;;;;-147.65;100.00;57646.63;10461665;28;20484;-79